MET'MAP v2.0
soon released !

Expected late october,
this new version will be
more efficient, smarter,
and hosted on a brand new
server x3 powerfull...
...and still free !


Not compatible ?
Try the mobile version !

LOG IN : | Subscribe | Disclaimer | Who is Orbifly ? |
ICAO code :

TAF - EGHQ Newquay Airport - 07 Jun 2020 06:12 UTC
Data Sources :     NOAA   


- Airport Elevation : 390 ft
- IATA code : NQY
- No reported NOTAMs.


EGHQ - Newquay Airport

Latest METAR recorded : 2015/08/11 07:50 EGHQ 110750Z 02002KT 9999 FEW025 13/11 Q1020
TAF TAF EGHQ
Valid from the 07 at 03:00 until the 07 at 12:00 UTC


070157Z 0703/0712 35010KT 9999 SCT008 BKN015
TEMPO 0703/0712 8000 -DZ FEW003 BKN008
PROB40
TEMPO 0703/0707 4000 RADZ BKN003

Source NOAA


MET'MAP, your aeronautical weather chart ! - Copyright ORBIFLY December 2007

Programming & Development : Alexandra Zaïnal
Co-Developer : Marc-Olivier Méhu
Technical & hardware support : Manuel Goepfert
Concept & Financing : Baudouin d'Aumeries